createdAt,value
2018-11-06T00:01:34.574Z,12.49
2018-11-06T00:04:02.675Z,12.48
2018-11-06T00:06:31.114Z,12.46
2018-11-06T00:08:59.213Z,12.48
2018-11-06T00:11:27.326Z,12.46
2018-11-06T00:13:55.429Z,12.44
2018-11-06T00:16:23.531Z,12.42
2018-11-06T00:18:51.626Z,12.42
2018-11-06T00:21:19.737Z,12.40
2018-11-06T00:23:47.830Z,12.40
2018-11-06T00:26:15.936Z,12.38
2018-11-06T00:28:44.037Z,12.36
2018-11-06T00:31:12.161Z,12.35
2018-11-06T00:33:40.261Z,12.34
2018-11-06T00:36:08.414Z,12.34
2018-11-06T00:38:36.683Z,12.31
2018-11-06T00:41:04.949Z,12.29
2018-11-06T00:43:33.052Z,12.32
2018-11-06T00:46:01.157Z,12.32
2018-11-06T00:48:29.253Z,12.31
2018-11-06T00:50:57.359Z,12.30
2018-11-06T00:53:25.449Z,12.35
2018-11-06T00:55:53.558Z,12.23
2018-11-06T00:58:21.646Z,12.19
2018-11-06T01:00:49.761Z,12.18
2018-11-06T01:03:17.857Z,12.15
2018-11-06T01:05:45.956Z,12.15
2018-11-06T01:08:14.062Z,12.10
2018-11-06T01:10:42.154Z,12.12
2018-11-06T01:13:10.259Z,11.99
2018-11-06T01:15:38.354Z,11.94
2018-11-06T01:18:06.438Z,11.78
2018-11-06T01:20:34.531Z,11.69
2018-11-06T01:23:02.624Z,11.59
2018-11-06T01:25:30.719Z,11.54
2018-11-06T01:27:58.822Z,11.51
2018-11-06T01:30:26.921Z,11.55
2018-11-06T01:32:55.017Z,11.49
2018-11-06T01:35:23.110Z,11.53
2018-11-06T01:37:51.257Z,11.37
2018-11-06T01:40:19.408Z,11.36
2018-11-06T01:42:48.111Z,11.34
2018-11-06T01:45:16.997Z,11.27
2018-11-06T01:47:45.104Z,11.19
2018-11-06T01:50:17.236Z,11.08
2018-11-06T01:52:46.503Z,11.11
2018-11-06T01:55:14.478Z,11.11
2018-11-06T01:57:42.583Z,11.09
2018-11-06T02:00:14.340Z,11.10
2018-11-06T02:02:42.527Z,11.08
2018-11-06T02:05:12.425Z,11.04
2018-11-06T02:07:41.106Z,11.00
2018-11-06T02:10:10.530Z,11.04
2018-11-06T02:12:38.632Z,11.04
2018-11-06T02:15:06.740Z,11.12
2018-11-06T02:17:34.839Z,11.11
2018-11-06T02:20:02.994Z,11.12
2018-11-06T02:22:31.081Z,11.11
2018-11-06T02:24:59.182Z,11.11
2018-11-06T02:27:27.288Z,11.18
2018-11-06T02:29:55.389Z,11.16
2018-11-06T02:32:23.563Z,11.02
2018-11-06T02:34:51.582Z,10.97
2018-11-06T02:37:19.673Z,10.94
2018-11-06T02:39:47.774Z,10.86
2018-11-06T02:42:15.865Z,10.84
2018-11-06T02:44:43.971Z,10.81
2018-11-06T02:47:12.065Z,10.79
2018-11-06T02:49:40.202Z,10.87
2018-11-06T02:52:08.306Z,10.81
2018-11-06T02:54:36.651Z,10.80
2018-11-06T02:57:04.746Z,10.86
2018-11-06T02:59:32.944Z,10.89
2018-11-06T03:02:01.034Z,10.94
2018-11-06T03:04:29.150Z,10.90
2018-11-06T03:06:57.244Z,10.81
2018-11-06T03:09:25.348Z,10.78
2018-11-06T03:11:53.459Z,10.85
2018-11-06T03:14:21.507Z,10.85
2018-11-06T03:16:49.824Z,10.88
2018-11-06T03:19:17.897Z,10.91
2018-11-06T03:21:45.990Z,10.97
2018-11-06T03:24:14.096Z,11.04
2018-11-06T03:26:42.256Z,10.93
2018-11-06T03:29:10.327Z,10.88
2018-11-06T03:31:38.441Z,10.83
2018-11-06T03:34:06.539Z,10.83
2018-11-06T03:36:34.803Z,10.83
2018-11-06T03:39:03.353Z,10.84
2018-11-06T03:41:31.405Z,10.83
2018-11-06T03:43:59.483Z,10.78
2018-11-06T03:46:27.574Z,10.75
2018-11-06T03:48:55.651Z,10.70
2018-11-06T03:51:23.739Z,10.63
2018-11-06T03:53:51.814Z,10.62
2018-11-06T03:56:19.903Z,10.63
2018-11-06T03:58:47.996Z,10.67
2018-11-06T04:01:16.084Z,10.69
2018-11-06T04:03:44.188Z,10.74
2018-11-06T04:06:12.279Z,10.83
2018-11-06T04:08:40.390Z,10.76
2018-11-06T04:11:08.745Z,10.78
2018-11-06T04:13:36.933Z,10.86
2018-11-06T04:16:05.020Z,10.85
2018-11-06T04:18:33.203Z,10.77
2018-11-06T04:21:01.486Z,10.73
2018-11-06T04:23:29.559Z,10.74
2018-11-06T04:25:57.648Z,10.66
2018-11-06T04:28:25.727Z,10.63
2018-11-06T04:30:53.829Z,10.62
2018-11-06T04:33:21.904Z,10.67
2018-11-06T04:35:49.981Z,10.59
2018-11-06T04:38:18.067Z,10.53
2018-11-06T04:40:46.198Z,10.59
2018-11-06T04:43:14.285Z,10.51
2018-11-06T04:45:42.388Z,10.49
2018-11-06T04:48:10.476Z,10.41
2018-11-06T04:50:38.555Z,10.37
2018-11-06T04:53:06.648Z,10.36
2018-11-06T04:55:34.727Z,10.28
2018-11-06T04:58:02.810Z,10.32
2018-11-06T05:00:30.891Z,10.43
2018-11-06T05:02:58.980Z,10.54
2018-11-06T05:05:27.091Z,10.49
2018-11-06T05:07:55.178Z,10.48
2018-11-06T05:10:23.264Z,10.52
2018-11-06T05:12:51.351Z,10.53
2018-11-06T05:15:19.429Z,10.60
2018-11-06T05:17:47.596Z,10.61
2018-11-06T05:20:16.905Z,10.59
2018-11-06T05:22:45.608Z,10.60
2018-11-06T05:25:14.006Z,10.61
2018-11-06T05:27:42.060Z,10.61
2018-11-06T05:30:11.052Z,10.54
2018-11-06T05:32:39.957Z,10.46
2018-11-06T05:35:08.632Z,10.40
2018-11-06T05:37:36.703Z,10.41
2018-11-06T05:40:16.225Z,10.41
2018-11-06T05:42:44.336Z,10.42
2018-11-06T05:45:12.421Z,10.32
2018-11-06T05:47:40.523Z,10.30
2018-11-06T05:50:08.613Z,10.32
2018-11-06T05:52:36.692Z,10.40
2018-11-06T05:55:05.005Z,10.40
2018-11-06T05:57:33.081Z,10.44
2018-11-06T06:00:01.171Z,10.36
2018-11-06T06:02:29.250Z,10.43
2018-11-06T06:04:57.342Z,10.32
2018-11-06T06:07:25.413Z,10.28
2018-11-06T06:09:53.506Z,10.30
2018-11-06T06:12:21.579Z,10.23
2018-11-06T06:14:49.675Z,10.15
2018-11-06T06:17:17.883Z,10.17
2018-11-06T06:19:45.843Z,10.21
2018-11-06T06:22:13.941Z,10.28
2018-11-06T06:24:42.039Z,10.31
2018-11-06T06:27:10.127Z,10.29
2018-11-06T06:29:38.227Z,10.31
2018-11-06T06:32:06.316Z,10.32
2018-11-06T06:34:34.528Z,10.29
2018-11-06T06:37:02.510Z,10.32
2018-11-06T06:39:30.674Z,10.28
2018-11-06T06:41:58.871Z,10.29
2018-11-06T06:44:26.870Z,10.29
2018-11-06T06:46:54.948Z,10.32
2018-11-06T06:49:23.042Z,10.48
2018-11-06T06:51:51.117Z,10.37
2018-11-06T06:54:19.385Z,10.35
2018-11-06T06:56:47.285Z,10.37
2018-11-06T06:59:15.366Z,10.40
2018-11-06T07:01:43.452Z,10.39
2018-11-06T07:04:11.625Z,10.39
2018-11-06T07:06:39.637Z,10.45
2018-11-06T07:09:08.888Z,10.46
2018-11-06T07:11:36.982Z,10.50
2018-11-06T07:14:05.237Z,10.59
2018-11-06T07:16:33.327Z,10.55
2018-11-06T07:19:01.406Z,10.53
2018-11-06T07:21:29.514Z,10.62
2018-11-06T07:23:57.626Z,10.58
2018-11-06T07:26:25.718Z,10.56
2018-11-06T07:28:53.848Z,10.51
2018-11-06T07:31:22.020Z,10.62
2018-11-06T07:33:50.105Z,10.54
2018-11-06T07:36:18.366Z,10.57
2018-11-06T07:38:46.447Z,10.67
2018-11-06T07:41:14.694Z,10.77
2018-11-06T07:43:42.695Z,10.95
2018-11-06T07:46:11.116Z,10.88
2018-11-06T07:48:39.191Z,10.88
2018-11-06T07:51:07.276Z,10.90
2018-11-06T07:53:35.370Z,10.90
2018-11-06T07:56:03.479Z,10.91
2018-11-06T07:58:31.518Z,10.87
2018-11-06T08:00:59.591Z,10.92
2018-11-06T08:03:27.683Z,10.97
2018-11-06T08:05:55.754Z,10.91
2018-11-06T08:08:23.838Z,10.95
2018-11-06T08:10:51.909Z,10.99
2018-11-06T08:13:19.997Z,11.04
2018-11-06T08:15:48.070Z,11.07
2018-11-06T08:18:16.153Z,11.12
2018-11-06T08:20:44.419Z,11.18
2018-11-06T08:23:12.395Z,11.29
2018-11-06T08:25:40.475Z,11.41
2018-11-06T08:28:08.561Z,11.52
2018-11-06T08:30:36.729Z,11.62
2018-11-06T08:33:04.839Z,11.72
2018-11-06T08:35:32.920Z,11.80
2018-11-06T08:38:01.042Z,11.89
2018-11-06T08:40:29.162Z,11.98
2018-11-06T08:42:57.246Z,12.06
2018-11-06T08:45:25.327Z,12.13
2018-11-06T08:47:53.417Z,12.21
2018-11-06T08:50:21.577Z,12.27
2018-11-06T08:52:49.657Z,12.34
2018-11-06T08:55:17.845Z,12.39
2018-11-06T08:57:46.140Z,12.43
2018-11-06T09:00:15.942Z,12.43
2018-11-06T09:02:45.021Z,12.46
2018-11-06T09:05:14.134Z,12.49
2018-11-06T09:07:42.234Z,12.53
2018-11-06T09:10:11.620Z,12.58
2018-11-06T09:12:40.089Z,12.61
2018-11-06T09:15:09.706Z,12.66
2018-11-06T09:17:38.281Z,12.71
2018-11-06T09:20:07.290Z,12.75
2018-11-06T09:22:35.379Z,12.79
2018-11-06T09:25:03.466Z,12.81
2018-11-06T09:27:31.537Z,12.83
2018-11-06T09:29:59.627Z,12.81
2018-11-06T09:32:27.703Z,12.79
2018-11-06T09:34:55.793Z,12.77
2018-11-06T09:37:23.867Z,12.77
2018-11-06T09:39:51.946Z,12.78
2018-11-06T09:42:20.023Z,12.80
2018-11-06T09:44:48.137Z,12.83
2018-11-06T09:47:16.190Z,12.87
2018-11-06T09:49:44.279Z,12.92
2018-11-06T09:52:12.356Z,12.97
2018-11-06T09:54:40.461Z,13.05
2018-11-06T09:57:08.526Z,13.14
2018-11-06T09:59:36.609Z,13.16
2018-11-06T10:02:05.027Z,13.20
2018-11-06T10:04:33.114Z,13.25
2018-11-06T10:07:01.401Z,13.28
2018-11-06T10:09:29.271Z,13.31
2018-11-06T10:11:57.346Z,13.33
2018-11-06T10:14:25.451Z,13.38
2018-11-06T10:16:53.526Z,13.42
2018-11-06T10:19:21.687Z,13.42
2018-11-06T10:21:49.789Z,13.46
2018-11-06T10:24:17.878Z,13.52
2018-11-06T10:26:45.982Z,13.56
2018-11-06T10:29:14.070Z,13.66
2018-11-06T10:31:42.167Z,13.73
2018-11-06T10:34:10.281Z,13.84
2018-11-06T10:36:38.367Z,13.93
2018-11-06T10:39:09.281Z,13.99
2018-11-06T10:41:37.567Z,14.04
2018-11-06T10:44:05.922Z,14.08
2018-11-06T10:46:34.019Z,14.10
2018-11-06T10:49:02.114Z,14.14
2018-11-06T10:51:30.300Z,14.17
2018-11-06T10:53:58.382Z,14.21
2018-11-06T10:56:26.502Z,14.26
2018-11-06T10:58:54.585Z,14.30
2018-11-06T11:01:28.176Z,14.33
2018-11-06T11:04:01.660Z,14.38
2018-11-06T11:06:29.794Z,14.42
2018-11-06T11:08:57.877Z,14.47
2018-11-06T11:11:25.999Z,14.51
2018-11-06T11:13:54.139Z,14.58
2018-11-06T11:16:22.233Z,14.63
2018-11-06T11:18:50.324Z,14.66
2018-11-06T11:21:18.429Z,14.71
2018-11-06T11:23:46.526Z,14.73
2018-11-06T11:26:14.624Z,14.74
2018-11-06T11:28:42.716Z,14.77
2018-11-06T11:31:10.814Z,14.80
2018-11-06T11:33:38.898Z,14.84
2018-11-06T11:36:06.989Z,14.89
2018-11-06T11:38:35.081Z,14.94
2018-11-06T11:41:03.173Z,14.97
2018-11-06T11:43:31.365Z,15.03
2018-11-06T11:45:59.500Z,15.06
2018-11-06T11:48:27.551Z,15.06
2018-11-06T11:50:55.637Z,15.09
2018-11-06T11:53:23.746Z,15.14
2018-11-06T11:55:51.828Z,15.18
2018-11-06T11:58:19.927Z,15.22
2018-11-06T12:00:48.013Z,15.25
2018-11-06T12:03:16.109Z,15.32
2018-11-06T12:05:44.194Z,15.34
2018-11-06T12:08:12.295Z,15.37
2018-11-06T12:10:40.392Z,15.40
2018-11-06T12:13:08.501Z,15.43
2018-11-06T12:15:36.580Z,15.50
2018-11-06T12:18:04.693Z,15.55
2018-11-06T12:20:32.772Z,15.58
2018-11-06T12:23:00.862Z,15.63
2018-11-06T12:25:29.060Z,15.65
2018-11-06T12:27:57.154Z,15.68
2018-11-06T12:30:25.230Z,15.69
2018-11-06T12:32:53.323Z,15.72
2018-11-06T12:35:21.478Z,15.72
2018-11-06T12:37:49.569Z,15.74
2018-11-06T12:40:17.643Z,15.76
2018-11-06T12:42:45.758Z,15.77
2018-11-06T12:45:15.329Z,15.79
2018-11-06T12:47:43.919Z,15.81
2018-11-06T12:50:12.251Z,15.83
2018-11-06T12:52:40.818Z,15.87
2018-11-06T12:55:10.283Z,15.91
2018-11-06T12:57:38.471Z,15.93
2018-11-06T13:00:09.699Z,15.96
2018-11-06T13:02:37.784Z,15.98
2018-11-06T13:05:06.470Z,16.00
2018-11-06T13:07:34.558Z,16.02
2018-11-06T13:10:02.893Z,16.02
2018-11-06T13:12:30.887Z,16.05
2018-11-06T13:14:59.322Z,16.06
2018-11-06T13:17:27.064Z,16.07
2018-11-06T13:19:55.155Z,16.08
2018-11-06T13:22:23.376Z,16.08
2018-11-06T13:24:51.829Z,16.10
2018-11-06T13:27:19.893Z,16.11
2018-11-06T13:29:48.453Z,16.12
2018-11-06T13:32:16.551Z,16.15
2018-11-06T13:34:44.631Z,16.17
2018-11-06T13:37:12.718Z,16.18
2018-11-06T13:39:40.835Z,16.20
2018-11-06T13:42:09.031Z,16.21
2018-11-06T13:44:37.209Z,16.21
2018-11-06T13:47:05.401Z,16.21
2018-11-06T13:49:33.516Z,16.21
2018-11-06T13:52:01.636Z,16.22
2018-11-06T13:54:29.717Z,16.21
2018-11-06T13:56:57.816Z,16.20
2018-11-06T13:59:25.915Z,16.20
2018-11-06T14:01:54.042Z,16.20
2018-11-06T14:04:22.337Z,16.19
2018-11-06T14:06:50.485Z,16.18
2018-11-06T14:09:19.073Z,16.18
2018-11-06T14:11:47.184Z,16.20
2018-11-06T14:14:15.279Z,16.19
2018-11-06T14:16:43.377Z,16.19
2018-11-06T14:19:11.667Z,16.22
2018-11-06T14:21:40.289Z,16.27
2018-11-06T14:24:08.555Z,16.23
2018-11-06T14:26:36.642Z,16.19
2018-11-06T14:29:04.729Z,16.21
2018-11-06T14:31:32.885Z,16.19
2018-11-06T14:34:01.329Z,16.17
2018-11-06T14:36:29.659Z,16.16
2018-11-06T14:38:58.002Z,16.17
2018-11-06T14:41:26.336Z,16.13
2018-11-06T14:43:54.414Z,16.11
2018-11-06T14:46:22.611Z,16.11
2018-11-06T14:48:50.951Z,16.07
2018-11-06T14:51:18.960Z,16.06
2018-11-06T14:53:47.057Z,16.03
2018-11-06T14:56:15.336Z,16.01
2018-11-06T14:58:43.735Z,15.99
2018-11-06T15:01:11.813Z,15.98
2018-11-06T15:03:39.904Z,15.95
2018-11-06T15:06:07.984Z,15.91
2018-11-06T15:08:36.196Z,15.88
2018-11-06T15:11:04.735Z,15.86
2018-11-06T15:13:32.854Z,15.72
2018-11-06T15:16:01.097Z,15.78
2018-11-06T15:18:29.212Z,15.76
2018-11-06T15:20:57.719Z,15.72
2018-11-06T15:23:25.742Z,15.68
2018-11-06T15:25:53.821Z,15.63
2018-11-06T15:28:22.170Z,15.59
2018-11-06T15:30:50.243Z,15.54
2018-11-06T15:33:18.378Z,15.53
2018-11-06T15:35:46.403Z,15.50
2018-11-06T15:38:14.509Z,15.48
2018-11-06T15:40:42.703Z,15.42
2018-11-06T15:43:10.771Z,15.34
2018-11-06T15:45:38.900Z,15.32
2018-11-06T15:48:06.990Z,15.28
2018-11-06T15:50:35.119Z,15.28
2018-11-06T15:53:03.206Z,15.18
2018-11-06T15:55:31.287Z,15.12
2018-11-06T15:57:59.379Z,15.04
2018-11-06T16:00:27.460Z,15.01
2018-11-06T16:02:55.688Z,14.95
2018-11-06T16:05:23.853Z,14.85
2018-11-06T16:07:51.934Z,14.76
2018-11-06T16:10:21.415Z,14.71
2018-11-06T16:12:49.502Z,14.68
2018-11-06T16:15:17.670Z,14.62
2018-11-06T16:17:45.816Z,14.54
2018-11-06T16:20:15.237Z,14.49
2018-11-06T16:22:43.614Z,14.41
2018-11-06T16:25:13.226Z,14.33
2018-11-06T16:27:41.703Z,14.30
2018-11-06T16:30:12.082Z,14.23
2018-11-06T16:32:40.287Z,14.18
2018-11-06T16:35:10.033Z,14.13
2018-11-06T16:37:38.394Z,14.09
2018-11-06T16:40:07.001Z,14.07
2018-11-06T16:42:35.119Z,14.06
2018-11-06T16:45:03.302Z,13.98
2018-11-06T16:47:31.466Z,13.93
2018-11-06T16:49:59.567Z,13.94
2018-11-06T16:52:27.655Z,13.90
2018-11-06T16:54:55.774Z,13.88
2018-11-06T16:57:23.855Z,13.87
2018-11-06T16:59:51.970Z,13.84
2018-11-06T17:02:20.084Z,13.82
2018-11-06T17:04:48.203Z,13.80
2018-11-06T17:07:16.302Z,13.78
2018-11-06T17:09:44.394Z,13.77
2018-11-06T17:12:12.494Z,13.74
2018-11-06T17:14:40.652Z,13.73
2018-11-06T17:17:08.774Z,13.72
2018-11-06T17:19:36.843Z,13.71
2018-11-06T17:22:05.115Z,13.69
2018-11-06T17:24:33.201Z,13.68
2018-11-06T17:27:01.307Z,13.67
2018-11-06T17:29:29.420Z,13.64
2018-11-06T17:31:57.532Z,13.63
2018-11-06T17:34:25.619Z,13.61
2018-11-06T17:36:53.885Z,13.59
2018-11-06T17:39:22.045Z,13.55
2018-11-06T17:41:50.131Z,13.52
2018-11-06T17:44:18.225Z,13.49
2018-11-06T17:46:46.322Z,13.46
2018-11-06T17:49:14.415Z,13.44
2018-11-06T17:51:42.509Z,13.44
2018-11-06T17:54:10.604Z,13.44
2018-11-06T17:56:38.705Z,13.45
2018-11-06T17:59:06.800Z,13.46
2018-11-06T18:01:34.898Z,13.45
2018-11-06T18:04:03.080Z,13.46
2018-11-06T18:06:31.095Z,13.45
2018-11-06T18:08:59.198Z,13.42
2018-11-06T18:11:27.282Z,13.41
2018-11-06T18:13:55.381Z,13.38
2018-11-06T18:16:23.462Z,13.33
2018-11-06T18:18:51.564Z,13.29
2018-11-06T18:21:19.651Z,13.23
2018-11-06T18:23:47.738Z,13.19
2018-11-06T18:26:15.817Z,13.15
2018-11-06T18:28:44.010Z,13.11
2018-11-06T18:31:12.088Z,13.07
2018-11-06T18:33:40.176Z,13.02
2018-11-06T18:36:08.250Z,12.99
2018-11-06T18:38:36.336Z,12.95
2018-11-06T18:41:04.595Z,12.92
2018-11-06T18:43:32.683Z,12.89
2018-11-06T18:46:00.763Z,12.86
2018-11-06T18:48:28.851Z,12.82
2018-11-06T18:50:56.932Z,12.78
2018-11-06T18:53:25.026Z,12.77
2018-11-06T18:55:53.098Z,12.74
2018-11-06T18:58:22.105Z,12.72
2018-11-06T19:00:50.168Z,12.68
2018-11-06T19:03:18.253Z,12.63
2018-11-06T19:05:46.329Z,12.59
2018-11-06T19:08:14.410Z,12.58
2018-11-06T19:10:42.522Z,12.54
2018-11-06T19:13:10.572Z,12.52
2018-11-06T19:15:38.668Z,12.49
2018-11-06T19:18:06.745Z,12.47
2018-11-06T19:20:34.848Z,12.45
2018-11-06T19:23:02.941Z,12.43
2018-11-06T19:25:31.033Z,12.39
2018-11-06T19:27:59.126Z,12.36
2018-11-06T19:30:27.233Z,12.32
2018-11-06T19:32:55.326Z,12.30
2018-11-06T19:35:23.421Z,12.29
2018-11-06T19:37:51.511Z,12.26
2018-11-06T19:40:19.656Z,12.25
2018-11-06T19:42:48.338Z,12.23
2018-11-06T19:45:16.499Z,12.20
2018-11-06T19:47:44.688Z,12.18
2018-11-06T19:50:17.483Z,12.14
2018-11-06T19:52:45.627Z,12.09
2018-11-06T19:55:14.669Z,12.08
2018-11-06T19:57:42.924Z,12.06
2018-11-06T20:00:15.189Z,12.06
2018-11-06T20:02:44.492Z,12.05
2018-11-06T20:05:12.679Z,12.05
2018-11-06T20:07:41.656Z,12.02
2018-11-06T20:10:11.390Z,11.99
2018-11-06T20:12:39.900Z,11.98
2018-11-06T20:15:09.678Z,11.97
2018-11-06T20:17:38.009Z,11.99
2018-11-06T20:20:08.578Z,11.94
2018-11-06T20:22:36.695Z,11.92
2018-11-06T20:25:05.033Z,11.91
2018-11-06T20:27:33.147Z,11.91
2018-11-06T20:30:01.396Z,11.91
2018-11-06T20:32:29.342Z,11.93
2018-11-06T20:34:57.427Z,11.95
2018-11-06T20:37:25.874Z,11.95
2018-11-06T20:39:53.926Z,11.95
2018-11-06T20:42:22.035Z,11.94
2018-11-06T20:44:50.113Z,11.94
2018-11-06T20:47:18.304Z,11.90
2018-11-06T20:49:46.472Z,11.90
2018-11-06T20:52:14.587Z,11.88
2018-11-06T20:54:42.720Z,11.85
2018-11-06T20:57:10.785Z,11.86
2018-11-06T20:59:38.871Z,11.88
2018-11-06T21:02:07.090Z,11.85
2018-11-06T21:04:35.166Z,11.85
2018-11-06T21:07:03.495Z,11.84
2018-11-06T21:09:31.501Z,11.82
2018-11-06T21:11:59.953Z,11.81
2018-11-06T21:14:28.002Z,11.78
2018-11-06T21:16:56.172Z,11.77
2018-11-06T21:19:24.195Z,11.76
2018-11-06T21:21:52.290Z,11.76
2018-11-06T21:24:20.388Z,11.74
2018-11-06T21:26:48.626Z,11.73
2018-11-06T21:29:16.594Z,11.71
2018-11-06T21:31:44.694Z,11.67
2018-11-06T21:34:12.821Z,11.64
2018-11-06T21:36:40.907Z,11.62
2018-11-06T21:39:09.846Z,11.61
2018-11-06T21:41:37.849Z,11.59
2018-11-06T21:44:05.987Z,11.57
2018-11-06T21:46:34.062Z,11.52
2018-11-06T21:49:02.384Z,11.48
2018-11-06T21:51:30.633Z,11.46
2018-11-06T21:53:58.765Z,11.45
2018-11-06T21:56:26.868Z,11.44
2018-11-06T21:58:54.942Z,11.44
2018-11-06T22:01:23.022Z,11.44
2018-11-06T22:03:51.139Z,11.43
2018-11-06T22:06:19.245Z,11.43
2018-11-06T22:08:47.357Z,11.42
2018-11-06T22:11:15.432Z,11.39
2018-11-06T22:13:43.514Z,11.41
2018-11-06T22:16:11.594Z,11.41
2018-11-06T22:18:39.682Z,11.41
2018-11-06T22:21:07.777Z,11.40
2018-11-06T22:23:35.878Z,11.41
2018-11-06T22:26:03.974Z,11.36
2018-11-06T22:28:32.073Z,11.31
2018-11-06T22:31:00.160Z,11.20
2018-11-06T22:33:28.268Z,11.18
2018-11-06T22:35:56.356Z,11.17
2018-11-06T22:38:24.453Z,11.19
2018-11-06T22:40:52.550Z,11.18
2018-11-06T22:43:20.669Z,11.20
2018-11-06T22:45:48.777Z,11.20
2018-11-06T22:48:16.862Z,11.22
2018-11-06T22:50:44.973Z,11.23
2018-11-06T22:53:13.137Z,11.22
2018-11-06T22:55:41.185Z,11.24
2018-11-06T22:58:09.277Z,11.17
2018-11-06T23:00:42.731Z,11.16
2018-11-06T23:03:12.313Z,11.12
2018-11-06T23:05:40.662Z,11.09
2018-11-06T23:08:14.038Z,11.11
2018-11-06T23:10:42.194Z,11.08
2018-11-06T23:13:10.753Z,11.06
2018-11-06T23:15:38.922Z,11.06
2018-11-06T23:18:07.029Z,11.07
2018-11-06T23:20:35.187Z,11.07
2018-11-06T23:23:03.307Z,11.08
2018-11-06T23:25:31.394Z,11.08
2018-11-06T23:27:59.586Z,11.10
2018-11-06T23:30:27.687Z,11.07
2018-11-06T23:32:55.761Z,11.08
2018-11-06T23:35:23.846Z,11.08
2018-11-06T23:37:51.921Z,11.07
2018-11-06T23:40:20.034Z,11.01
2018-11-06T23:42:48.109Z,10.97
2018-11-06T23:45:16.222Z,10.93
2018-11-06T23:47:44.274Z,10.94
2018-11-06T23:50:12.354Z,10.92
2018-11-06T23:52:40.872Z,10.93
2018-11-06T23:55:09.459Z,10.87
2018-11-06T23:57:37.518Z,10.84
